sensor_id;sensor_type;location;lat;lon;timestamp;P1;durP1;ratioP1;P2;durP2;ratioP2
15982;SDS011;14442;50.196;8.096;2024-01-30T00:00:51;3.03;;;2.80;;
15982;SDS011;14442;50.196;8.096;2024-01-30T00:03:18;4.33;;;2.60;;
15982;SDS011;14442;50.196;8.096;2024-01-30T00:05:46;3.00;;;2.70;;
15982;SDS011;14442;50.196;8.096;2024-01-30T00:08:12;3.73;;;2.80;;
15982;SDS011;14442;50.196;8.096;2024-01-30T00:10:39;3.47;;;2.80;;
15982;SDS011;14442;50.196;8.096;2024-01-30T00:13:06;3.87;;;3.10;;
15982;SDS011;14442;50.196;8.096;2024-01-30T00:15:32;5.73;;;2.50;;
15982;SDS011;14442;50.196;8.096;2024-01-30T00:17:59;3.90;;;2.93;;
15982;SDS011;14442;50.196;8.096;2024-01-30T00:20:26;3.87;;;2.80;;
15982;SDS011;14442;50.196;8.096;2024-01-30T00:22:54;2.77;;;2.57;;
15982;SDS011;14442;50.196;8.096;2024-01-30T00:25:21;2.47;;;2.27;;
15982;SDS011;14442;50.196;8.096;2024-01-30T00:27:47;3.03;;;2.73;;
15982;SDS011;14442;50.196;8.096;2024-01-30T00:30:14;2.70;;;2.37;;
15982;SDS011;14442;50.196;8.096;2024-01-30T00:32:41;3.33;;;2.97;;
15982;SDS011;14442;50.196;8.096;2024-01-30T00:35:08;3.87;;;2.20;;
15982;SDS011;14442;50.196;8.096;2024-01-30T00:37:35;2.70;;;2.50;;
15982;SDS011;14442;50.196;8.096;2024-01-30T00:40:04;2.67;;;2.47;;
15982;SDS011;14442;50.196;8.096;2024-01-30T00:42:31;2.50;;;2.30;;
15982;SDS011;14442;50.196;8.096;2024-01-30T00:44:59;4.43;;;2.83;;
15982;SDS011;14442;50.196;8.096;2024-01-30T00:47:26;3.00;;;2.37;;
15982;SDS011;14442;50.196;8.096;2024-01-30T00:49:54;2.30;;;2.20;;
15982;SDS011;14442;50.196;8.096;2024-01-30T00:52:21;2.97;;;2.47;;
15982;SDS011;14442;50.196;8.096;2024-01-30T00:54:48;2.87;;;2.67;;
15982;SDS011;14442;50.196;8.096;2024-01-30T00:57:16;5.13;;;2.40;;
15982;SDS011;14442;50.196;8.096;2024-01-30T00:59:42;2.10;;;2.00;;
15982;SDS011;14442;50.196;8.096;2024-01-30T01:02:09;2.10;;;2.00;;
15982;SDS011;14442;50.196;8.096;2024-01-30T01:04:36;2.70;;;2.53;;
15982;SDS011;14442;50.196;8.096;2024-01-30T01:07:03;2.30;;;2.20;;
15982;SDS011;14442;50.196;8.096;2024-01-30T01:09:30;2.50;;;2.33;;
15982;SDS011;14442;50.196;8.096;2024-01-30T01:11:56;2.20;;;2.10;;
15982;SDS011;14442;50.196;8.096;2024-01-30T01:14:24;3.00;;;2.80;;
15982;SDS011;14442;50.196;8.096;2024-01-30T01:16:51;3.47;;;2.50;;
15982;SDS011;14442;50.196;8.096;2024-01-30T01:19:18;2.07;;;1.97;;
15982;SDS011;14442;50.196;8.096;2024-01-30T01:21:44;2.17;;;2.07;;
15982;SDS011;14442;50.196;8.096;2024-01-30T01:24:11;2.53;;;2.30;;
15982;SDS011;14442;50.196;8.096;2024-01-30T01:26:38;2.33;;;2.23;;
15982;SDS011;14442;50.196;8.096;2024-01-30T01:29:05;2.27;;;2.17;;
15982;SDS011;14442;50.196;8.096;2024-01-30T01:31:36;2.23;;;2.13;;
15982;SDS011;14442;50.196;8.096;2024-01-30T01:34:08;2.40;;;2.20;;
15982;SDS011;14442;50.196;8.096;2024-01-30T01:36:35;2.37;;;2.27;;
15982;SDS011;14442;50.196;8.096;2024-01-30T01:39:01;2.33;;;2.23;;
15982;SDS011;14442;50.196;8.096;2024-01-30T01:41:29;2.27;;;2.17;;
15982;SDS011;14442;50.196;8.096;2024-01-30T01:43:56;2.13;;;2.03;;
15982;SDS011;14442;50.196;8.096;2024-01-30T01:46:24;2.57;;;2.40;;
15982;SDS011;14442;50.196;8.096;2024-01-30T01:48:53;3.00;;;2.53;;
15982;SDS011;14442;50.196;8.096;2024-01-30T01:51:21;2.03;;;1.93;;
15982;SDS011;14442;50.196;8.096;2024-01-30T01:53:49;1.93;;;1.83;;
15982;SDS011;14442;50.196;8.096;2024-01-30T01:56:16;2.43;;;2.30;;
15982;SDS011;14442;50.196;8.096;2024-01-30T01:58:43;2.07;;;1.97;;
15982;SDS011;14442;50.196;8.096;2024-01-30T02:01:12;2.20;;;2.10;;
15982;SDS011;14442;50.196;8.096;2024-01-30T02:03:40;2.07;;;1.97;;
15982;SDS011;14442;50.196;8.096;2024-01-30T02:06:09;1.90;;;1.80;;
15982;SDS011;14442;50.196;8.096;2024-01-30T02:08:36;2.33;;;2.13;;
15982;SDS011;14442;50.196;8.096;2024-01-30T02:11:03;2.20;;;2.10;;
15982;SDS011;14442;50.196;8.096;2024-01-30T02:13:30;3.83;;;2.30;;
15982;SDS011;14442;50.196;8.096;2024-01-30T02:15:57;2.00;;;1.90;;
15982;SDS011;14442;50.196;8.096;2024-01-30T02:18:23;2.03;;;1.93;;
15982;SDS011;14442;50.196;8.096;2024-01-30T02:20:50;1.90;;;1.80;;
15982;SDS011;14442;50.196;8.096;2024-01-30T02:23:20;1.90;;;1.80;;
15982;SDS011;14442;50.196;8.096;2024-01-30T02:25:50;1.77;;;1.67;;
15982;SDS011;14442;50.196;8.096;2024-01-30T02:28:18;1.87;;;1.77;;
15982;SDS011;14442;50.196;8.096;2024-01-30T02:30:45;2.07;;;1.97;;
15982;SDS011;14442;50.196;8.096;2024-01-30T02:33:12;2.10;;;2.00;;
15982;SDS011;14442;50.196;8.096;2024-01-30T02:35:39;1.73;;;1.67;;
15982;SDS011;14442;50.196;8.096;2024-01-30T02:38:06;1.90;;;1.80;;
15982;SDS011;14442;50.196;8.096;2024-01-30T02:40:34;2.13;;;1.67;;
15982;SDS011;14442;50.196;8.096;2024-01-30T02:43:01;2.13;;;2.03;;
15982;SDS011;14442;50.196;8.096;2024-01-30T02:45:29;2.07;;;1.97;;
15982;SDS011;14442;50.196;8.096;2024-01-30T02:47:56;1.50;;;1.43;;
15982;SDS011;14442;50.196;8.096;2024-01-30T02:50:22;2.07;;;1.97;;
15982;SDS011;14442;50.196;8.096;2024-01-30T02:52:49;1.90;;;1.80;;
15982;SDS011;14442;50.196;8.096;2024-01-30T02:55:16;1.87;;;1.77;;
15982;SDS011;14442;50.196;8.096;2024-01-30T02:57:45;1.60;;;1.50;;
15982;SDS011;14442;50.196;8.096;2024-01-30T03:00:12;1.80;;;1.70;;
15982;SDS011;14442;50.196;8.096;2024-01-30T03:02:39;1.67;;;1.57;;
15982;SDS011;14442;50.196;8.096;2024-01-30T03:05:06;1.70;;;1.60;;
15982;SDS011;14442;50.196;8.096;2024-01-30T03:07:34;1.90;;;1.80;;
15982;SDS011;14442;50.196;8.096;2024-01-30T03:10:00;2.07;;;1.97;;
15982;SDS011;14442;50.196;8.096;2024-01-30T03:12:27;1.80;;;1.70;;
15982;SDS011;14442;50.196;8.096;2024-01-30T03:14:55;1.77;;;1.70;;
15982;SDS011;14442;50.196;8.096;2024-01-30T03:17:22;1.73;;;1.63;;
15982;SDS011;14442;50.196;8.096;2024-01-30T03:19:49;1.33;;;1.33;;
15982;SDS011;14442;50.196;8.096;2024-01-30T03:22:16;1.40;;;1.40;;
15982;SDS011;14442;50.196;8.096;2024-01-30T03:24:42;1.73;;;1.63;;
15982;SDS011;14442;50.196;8.096;2024-01-30T03:27:09;1.70;;;1.60;;
15982;SDS011;14442;50.196;8.096;2024-01-30T03:29:37;1.43;;;1.33;;
15982;SDS011;14442;50.196;8.096;2024-01-30T03:32:05;1.60;;;1.50;;
15982;SDS011;14442;50.196;8.096;2024-01-30T03:34:32;1.40;;;1.40;;
15982;SDS011;14442;50.196;8.096;2024-01-30T03:36:59;1.20;;;1.20;;
15982;SDS011;14442;50.196;8.096;2024-01-30T03:39:26;1.53;;;1.43;;
15982;SDS011;14442;50.196;8.096;2024-01-30T03:41:52;1.47;;;1.40;;
15982;SDS011;14442;50.196;8.096;2024-01-30T03:44:19;1.47;;;1.40;;
15982;SDS011;14442;50.196;8.096;2024-01-30T03:46:46;1.50;;;1.50;;
15982;SDS011;14442;50.196;8.096;2024-01-30T03:49:14;1.70;;;1.60;;
15982;SDS011;14442;50.196;8.096;2024-01-30T03:51:40;1.60;;;1.57;;
15982;SDS011;14442;50.196;8.096;2024-01-30T03:54:07;1.80;;;1.70;;
15982;SDS011;14442;50.196;8.096;2024-01-30T03:56:34;1.63;;;1.53;;
15982;SDS011;14442;50.196;8.096;2024-01-30T03:59:01;2.50;;;1.63;;
15982;SDS011;14442;50.196;8.096;2024-01-30T04:01:28;1.57;;;1.47;;
15982;SDS011;14442;50.196;8.096;2024-01-30T04:03:55;1.70;;;1.60;;
15982;SDS011;14442;50.196;8.096;2024-01-30T04:06:23;1.30;;;1.30;;
15982;SDS011;14442;50.196;8.096;2024-01-30T04:08:49;1.57;;;1.50;;
15982;SDS011;14442;50.196;8.096;2024-01-30T04:11:18;1.43;;;1.33;;
15982;SDS011;14442;50.196;8.096;2024-01-30T04:13:44;1.67;;;1.57;;
15982;SDS011;14442;50.196;8.096;2024-01-30T04:16:18;1.30;;;1.30;;
15982;SDS011;14442;50.196;8.096;2024-01-30T04:18:46;1.77;;;1.67;;
15982;SDS011;14442;50.196;8.096;2024-01-30T04:21:13;1.33;;;1.33;;
15982;SDS011;14442;50.196;8.096;2024-01-30T04:23:41;1.37;;;1.30;;
15982;SDS011;14442;50.196;8.096;2024-01-30T04:26:07;1.30;;;1.30;;
15982;SDS011;14442;50.196;8.096;2024-01-30T04:28:34;1.60;;;1.50;;
15982;SDS011;14442;50.196;8.096;2024-01-30T04:31:01;2.00;;;1.90;;
15982;SDS011;14442;50.196;8.096;2024-01-30T04:33:28;1.57;;;1.50;;
15982;SDS011;14442;50.196;8.096;2024-01-30T04:35:54;1.30;;;1.30;;
15982;SDS011;14442;50.196;8.096;2024-01-30T04:38:21;1.50;;;1.50;;
15982;SDS011;14442;50.196;8.096;2024-01-30T04:40:49;1.37;;;1.37;;
15982;SDS011;14442;50.196;8.096;2024-01-30T04:43:16;1.33;;;1.33;;
15982;SDS011;14442;50.196;8.096;2024-01-30T04:45:44;1.20;;;1.20;;
15982;SDS011;14442;50.196;8.096;2024-01-30T04:48:10;2.07;;;1.97;;
15982;SDS011;14442;50.196;8.096;2024-01-30T04:50:37;1.47;;;1.43;;
15982;SDS011;14442;50.196;8.096;2024-01-30T04:53:04;1.80;;;1.70;;
15982;SDS011;14442;50.196;8.096;2024-01-30T04:55:30;1.33;;;1.33;;
15982;SDS011;14442;50.196;8.096;2024-01-30T04:57:58;1.60;;;1.50;;
15982;SDS011;14442;50.196;8.096;2024-01-30T05:00:25;1.23;;;1.23;;
15982;SDS011;14442;50.196;8.096;2024-01-30T05:02:52;1.40;;;1.40;;
15982;SDS011;14442;50.196;8.096;2024-01-30T05:05:20;1.57;;;1.47;;
15982;SDS011;14442;50.196;8.096;2024-01-30T05:07:47;1.13;;;1.13;;
15982;SDS011;14442;50.196;8.096;2024-01-30T05:10:14;1.60;;;1.50;;
15982;SDS011;14442;50.196;8.096;2024-01-30T05:12:41;1.40;;;1.40;;
15982;SDS011;14442;50.196;8.096;2024-01-30T05:15:09;1.70;;;1.60;;
15982;SDS011;14442;50.196;8.096;2024-01-30T05:17:36;1.30;;;1.20;;
15982;SDS011;14442;50.196;8.096;2024-01-30T05:20:03;1.77;;;1.67;;
15982;SDS011;14442;50.196;8.096;2024-01-30T05:22:31;1.30;;;1.30;;
15982;SDS011;14442;50.196;8.096;2024-01-30T05:24:57;1.30;;;1.30;;
15982;SDS011;14442;50.196;8.096;2024-01-30T05:27:24;1.57;;;1.47;;
15982;SDS011;14442;50.196;8.096;2024-01-30T05:29:51;1.33;;;1.23;;
15982;SDS011;14442;50.196;8.096;2024-01-30T05:32:19;1.43;;;1.33;;
15982;SDS011;14442;50.196;8.096;2024-01-30T05:34:45;1.23;;;1.23;;
15982;SDS011;14442;50.196;8.096;2024-01-30T05:37:12;1.50;;;1.40;;
15982;SDS011;14442;50.196;8.096;2024-01-30T05:39:42;2.00;;;1.30;;
15982;SDS011;14442;50.196;8.096;2024-01-30T05:42:08;1.00;;;1.00;;
15982;SDS011;14442;50.196;8.096;2024-01-30T05:44:36;1.40;;;1.40;;
15982;SDS011;14442;50.196;8.096;2024-01-30T05:47:02;1.73;;;1.37;;
15982;SDS011;14442;50.196;8.096;2024-01-30T05:49:31;1.50;;;1.40;;
15982;SDS011;14442;50.196;8.096;2024-01-30T05:51:57;1.50;;;1.40;;
15982;SDS011;14442;50.196;8.096;2024-01-30T05:54:24;1.40;;;1.37;;
15982;SDS011;14442;50.196;8.096;2024-01-30T05:56:51;2.20;;;1.87;;
15982;SDS011;14442;50.196;8.096;2024-01-30T05:59:17;1.90;;;1.40;;
15982;SDS011;14442;50.196;8.096;2024-01-30T06:01:47;1.53;;;1.40;;
15982;SDS011;14442;50.196;8.096;2024-01-30T06:04:14;1.20;;;1.20;;
15982;SDS011;14442;50.196;8.096;2024-01-30T06:06:42;2.00;;;1.33;;
15982;SDS011;14442;50.196;8.096;2024-01-30T06:09:09;1.30;;;1.30;;
15982;SDS011;14442;50.196;8.096;2024-01-30T06:11:37;1.67;;;1.57;;
15982;SDS011;14442;50.196;8.096;2024-01-30T06:14:04;1.60;;;1.50;;
15982;SDS011;14442;50.196;8.096;2024-01-30T06:16:31;1.40;;;1.40;;
15982;SDS011;14442;50.196;8.096;2024-01-30T06:18:58;1.67;;;1.57;;
15982;SDS011;14442;50.196;8.096;2024-01-30T06:21:25;1.40;;;1.30;;
15982;SDS011;14442;50.196;8.096;2024-01-30T06:23:53;1.57;;;1.47;;
15982;SDS011;14442;50.196;8.096;2024-01-30T06:26:19;1.50;;;1.40;;
15982;SDS011;14442;50.196;8.096;2024-01-30T06:28:46;1.67;;;1.57;;
15982;SDS011;14442;50.196;8.096;2024-01-30T06:31:13;1.90;;;1.80;;
15982;SDS011;14442;50.196;8.096;2024-01-30T06:33:39;1.50;;;1.40;;
15982;SDS011;14442;50.196;8.096;2024-01-30T06:36:07;1.87;;;1.63;;
15982;SDS011;14442;50.196;8.096;2024-01-30T06:38:34;1.37;;;1.37;;
15982;SDS011;14442;50.196;8.096;2024-01-30T06:41:02;1.37;;;1.37;;
15982;SDS011;14442;50.196;8.096;2024-01-30T06:43:29;1.60;;;1.27;;
15982;SDS011;14442;50.196;8.096;2024-01-30T06:45:55;1.83;;;1.70;;
15982;SDS011;14442;50.196;8.096;2024-01-30T06:48:22;1.40;;;1.40;;
15982;SDS011;14442;50.196;8.096;2024-01-30T06:50:49;1.60;;;1.50;;
15982;SDS011;14442;50.196;8.096;2024-01-30T06:53:16;1.40;;;1.40;;
15982;SDS011;14442;50.196;8.096;2024-01-30T06:55:43;1.60;;;1.50;;
15982;SDS011;14442;50.196;8.096;2024-01-30T06:58:11;1.47;;;1.37;;
15982;SDS011;14442;50.196;8.096;2024-01-30T07:00:38;1.77;;;1.40;;
15982;SDS011;14442;50.196;8.096;2024-01-30T07:03:04;1.70;;;1.43;;
15982;SDS011;14442;50.196;8.096;2024-01-30T07:05:31;1.47;;;1.37;;
15982;SDS011;14442;50.196;8.096;2024-01-30T07:07:58;1.77;;;1.67;;
15982;SDS011;14442;50.196;8.096;2024-01-30T07:10:25;1.20;;;1.10;;
15982;SDS011;14442;50.196;8.096;2024-01-30T07:12:52;1.53;;;1.43;;
15982;SDS011;14442;50.196;8.096;2024-01-30T07:15:20;1.60;;;1.50;;
15982;SDS011;14442;50.196;8.096;2024-01-30T07:17:47;1.60;;;1.50;;
15982;SDS011;14442;50.196;8.096;2024-01-30T07:20:13;1.53;;;1.17;;
15982;SDS011;14442;50.196;8.096;2024-01-30T07:22:40;1.33;;;1.33;;
15982;SDS011;14442;50.196;8.096;2024-01-30T07:25:07;1.27;;;1.20;;
15982;SDS011;14442;50.196;8.096;2024-01-30T07:27:34;1.60;;;1.50;;
15982;SDS011;14442;50.196;8.096;2024-01-30T07:30:01;1.30;;;1.30;;
15982;SDS011;14442;50.196;8.096;2024-01-30T07:32:30;1.50;;;1.40;;
15982;SDS011;14442;50.196;8.096;2024-01-30T07:34:56;2.00;;;1.20;;
15982;SDS011;14442;50.196;8.096;2024-01-30T07:37:23;1.30;;;1.30;;
15982;SDS011;14442;50.196;8.096;2024-01-30T07:39:50;1.50;;;1.40;;
15982;SDS011;14442;50.196;8.096;2024-01-30T07:42:17;1.20;;;1.20;;
15982;SDS011;14442;50.196;8.096;2024-01-30T07:44:43;1.53;;;1.43;;
15982;SDS011;14442;50.196;8.096;2024-01-30T07:47:10;1.70;;;1.60;;
15982;SDS011;14442;50.196;8.096;2024-01-30T07:49:41;1.40;;;1.30;;
15982;SDS011;14442;50.196;8.096;2024-01-30T07:52:08;3.23;;;1.80;;
15982;SDS011;14442;50.196;8.096;2024-01-30T07:54:41;1.80;;;1.70;;
15982;SDS011;14442;50.196;8.096;2024-01-30T08:03:52;1.73;;;1.57;;
15982;SDS011;14442;50.196;8.096;2024-01-30T08:06:20;3.70;;;1.80;;
15982;SDS011;14442;50.196;8.096;2024-01-30T08:08:47;2.77;;;1.30;;
15982;SDS011;14442;50.196;8.096;2024-01-30T08:11:14;2.30;;;1.50;;
15982;SDS011;14442;50.196;8.096;2024-01-30T08:13:41;1.53;;;1.43;;
15982;SDS011;14442;50.196;8.096;2024-01-30T08:16:07;2.23;;;1.53;;
15982;SDS011;14442;50.196;8.096;2024-01-30T08:18:34;2.00;;;1.60;;
15982;SDS011;14442;50.196;8.096;2024-01-30T08:21:01;2.00;;;1.90;;
15982;SDS011;14442;50.196;8.096;2024-01-30T08:23:29;2.13;;;1.90;;
15982;SDS011;14442;50.196;8.096;2024-01-30T08:25:56;3.90;;;1.87;;
15982;SDS011;14442;50.196;8.096;2024-01-30T08:28:23;2.63;;;1.70;;
15982;SDS011;14442;50.196;8.096;2024-01-30T08:30:51;1.60;;;1.50;;
15982;SDS011;14442;50.196;8.096;2024-01-30T08:33:17;1.53;;;1.40;;
15982;SDS011;14442;50.196;8.096;2024-01-30T08:35:44;1.73;;;1.43;;
15982;SDS011;14442;50.196;8.096;2024-01-30T08:38:11;1.80;;;1.70;;
15982;SDS011;14442;50.196;8.096;2024-01-30T08:40:39;1.97;;;1.87;;
15982;SDS011;14442;50.196;8.096;2024-01-30T08:43:06;1.40;;;1.30;;
15982;SDS011;14442;50.196;8.096;2024-01-30T08:45:35;1.83;;;1.73;;
15982;SDS011;14442;50.196;8.096;2024-01-30T08:48:01;2.50;;;1.83;;
15982;SDS011;14442;50.196;8.096;2024-01-30T08:50:28;2.47;;;2.00;;
15982;SDS011;14442;50.196;8.096;2024-01-30T08:52:55;2.00;;;1.90;;
15982;SDS011;14442;50.196;8.096;2024-01-30T08:55:22;2.20;;;2.10;;
15982;SDS011;14442;50.196;8.096;2024-01-30T08:57:50;2.77;;;2.13;;
15982;SDS011;14442;50.196;8.096;2024-01-30T09:00:18;2.10;;;2.00;;
15982;SDS011;14442;50.196;8.096;2024-01-30T09:02:45;2.43;;;2.23;;
15982;SDS011;14442;50.196;8.096;2024-01-30T09:05:12;2.10;;;2.00;;
15982;SDS011;14442;50.196;8.096;2024-01-30T09:07:38;2.70;;;2.50;;
15982;SDS011;14442;50.196;8.096;2024-01-30T09:10:06;2.60;;;2.20;;
15982;SDS011;14442;50.196;8.096;2024-01-30T09:12:33;2.37;;;2.27;;
15982;SDS011;14442;50.196;8.096;2024-01-30T09:15:01;2.50;;;2.40;;
15982;SDS011;14442;50.196;8.096;2024-01-30T09:17:28;2.50;;;2.30;;
15982;SDS011;14442;50.196;8.096;2024-01-30T09:19:55;2.37;;;2.17;;
15982;SDS011;14442;50.196;8.096;2024-01-30T09:22:21;2.43;;;2.23;;
15982;SDS011;14442;50.196;8.096;2024-01-30T09:24:48;2.43;;;2.23;;
15982;SDS011;14442;50.196;8.096;2024-01-30T09:27:15;2.30;;;2.10;;
15982;SDS011;14442;50.196;8.096;2024-01-30T09:29:42;2.40;;;2.30;;
15982;SDS011;14442;50.196;8.096;2024-01-30T09:32:10;2.90;;;2.10;;
15982;SDS011;14442;50.196;8.096;2024-01-30T09:34:36;2.00;;;1.90;;
15982;SDS011;14442;50.196;8.096;2024-01-30T09:37:04;2.03;;;1.87;;
15982;SDS011;14442;50.196;8.096;2024-01-30T09:39:31;2.30;;;2.20;;
15982;SDS011;14442;50.196;8.096;2024-01-30T09:42:00;2.10;;;1.93;;
15982;SDS011;14442;50.196;8.096;2024-01-30T09:44:31;1.80;;;1.70;;
15982;SDS011;14442;50.196;8.096;2024-01-30T09:47:00;2.60;;;2.40;;
15982;SDS011;14442;50.196;8.096;2024-01-30T09:49:30;1.80;;;1.70;;
15982;SDS011;14442;50.196;8.096;2024-01-30T09:51:58;2.00;;;1.90;;
15982;SDS011;14442;50.196;8.096;2024-01-30T09:54:25;2.80;;;2.03;;
15982;SDS011;14442;50.196;8.096;2024-01-30T09:56:52;5.93;;;2.20;;
15982;SDS011;14442;50.196;8.096;2024-01-30T09:59:19;3.87;;;1.63;;
15982;SDS011;14442;50.196;8.096;2024-01-30T10:01:46;3.80;;;1.90;;
15982;SDS011;14442;50.196;8.096;2024-01-30T10:04:13;4.87;;;1.80;;
15982;SDS011;14442;50.196;8.096;2024-01-30T10:06:41;5.30;;;2.30;;
15982;SDS011;14442;50.196;8.096;2024-01-30T10:09:08;4.80;;;2.10;;
15982;SDS011;14442;50.196;8.096;2024-01-30T10:11:35;4.13;;;2.50;;
15982;SDS011;14442;50.196;8.096;2024-01-30T10:14:02;2.30;;;2.10;;
15982;SDS011;14442;50.196;8.096;2024-01-30T10:16:29;3.47;;;2.03;;
15982;SDS011;14442;50.196;8.096;2024-01-30T10:18:55;5.07;;;2.10;;
15982;SDS011;14442;50.196;8.096;2024-01-30T10:21:22;6.27;;;2.27;;
15982;SDS011;14442;50.196;8.096;2024-01-30T10:23:51;3.20;;;1.83;;
15982;SDS011;14442;50.196;8.096;2024-01-30T10:26:18;1.70;;;1.60;;
15982;SDS011;14442;50.196;8.096;2024-01-30T10:28:45;4.03;;;2.00;;
15982;SDS011;14442;50.196;8.096;2024-01-30T10:31:15;2.93;;;1.90;;
15982;SDS011;14442;50.196;8.096;2024-01-30T10:33:43;3.63;;;1.97;;
15982;SDS011;14442;50.196;8.096;2024-01-30T10:36:10;3.67;;;1.77;;
15982;SDS011;14442;50.196;8.096;2024-01-30T10:38:39;1.70;;;1.60;;
15982;SDS011;14442;50.196;8.096;2024-01-30T10:41:09;1.83;;;1.73;;
15982;SDS011;14442;50.196;8.096;2024-01-30T10:43:40;2.70;;;1.60;;
15982;SDS011;14442;50.196;8.096;2024-01-30T10:46:10;3.33;;;1.90;;
15982;SDS011;14442;50.196;8.096;2024-01-30T10:48:42;2.53;;;1.50;;
15982;SDS011;14442;50.196;8.096;2024-01-30T10:51:14;2.07;;;1.60;;
15982;SDS011;14442;50.196;8.096;2024-01-30T10:53:41;3.47;;;1.70;;
15982;SDS011;14442;50.196;8.096;2024-01-30T10:56:12;1.77;;;1.67;;
15982;SDS011;14442;50.196;8.096;2024-01-30T10:58:42;1.30;;;1.30;;
15982;SDS011;14442;50.196;8.096;2024-01-30T11:01:08;1.40;;;1.27;;
15982;SDS011;14442;50.196;8.096;2024-01-30T11:03:36;2.70;;;1.63;;
15982;SDS011;14442;50.196;8.096;2024-01-30T11:06:03;2.03;;;1.70;;
15982;SDS011;14442;50.196;8.096;2024-01-30T11:08:31;2.70;;;1.50;;
15982;SDS011;14442;50.196;8.096;2024-01-30T11:10:58;1.50;;;1.40;;
15982;SDS011;14442;50.196;8.096;2024-01-30T11:13:27;2.57;;;1.67;;
15982;SDS011;14442;50.196;8.096;2024-01-30T11:15:55;1.57;;;1.37;;
15982;SDS011;14442;50.196;8.096;2024-01-30T11:18:28;1.43;;;1.33;;
15982;SDS011;14442;50.196;8.096;2024-01-30T11:20:56;4.23;;;1.40;;
15982;SDS011;14442;50.196;8.096;2024-01-30T11:23:23;2.40;;;1.30;;
15982;SDS011;14442;50.196;8.096;2024-01-30T11:25:52;2.43;;;1.47;;
15982;SDS011;14442;50.196;8.096;2024-01-30T11:28:19;2.40;;;1.30;;
15982;SDS011;14442;50.196;8.096;2024-01-30T11:30:49;1.60;;;1.43;;
15982;SDS011;14442;50.196;8.096;2024-01-30T11:33:26;2.07;;;1.40;;
15982;SDS011;14442;50.196;8.096;2024-01-30T11:35:55;1.80;;;1.40;;
15982;SDS011;14442;50.196;8.096;2024-01-30T11:38:24;1.97;;;1.13;;
15982;SDS011;14442;50.196;8.096;2024-01-30T11:40:52;1.00;;;1.00;;
15982;SDS011;14442;50.196;8.096;2024-01-30T11:43:20;1.87;;;1.37;;
15982;SDS011;14442;50.196;8.096;2024-01-30T11:45:46;2.17;;;1.10;;
15982;SDS011;14442;50.196;8.096;2024-01-30T11:48:15;1.20;;;1.20;;
15982;SDS011;14442;50.196;8.096;2024-01-30T11:50:42;1.97;;;1.20;;
15982;SDS011;14442;50.196;8.096;2024-01-30T11:53:10;1.67;;;1.20;;
15982;SDS011;14442;50.196;8.096;2024-01-30T11:55:37;1.27;;;1.17;;
15982;SDS011;14442;50.196;8.096;2024-01-30T11:58:04;1.97;;;1.47;;
15982;SDS011;14442;50.196;8.096;2024-01-30T12:00:31;1.10;;;1.00;;
15982;SDS011;14442;50.196;8.096;2024-01-30T12:02:58;1.30;;;1.20;;
15982;SDS011;14442;50.196;8.096;2024-01-30T12:05:27;1.67;;;1.40;;
15982;SDS011;14442;50.196;8.096;2024-01-30T12:07:54;1.00;;;1.00;;
15982;SDS011;14442;50.196;8.096;2024-01-30T12:10:23;1.13;;;1.03;;
15982;SDS011;14442;50.196;8.096;2024-01-30T12:12:50;1.20;;;1.10;;
15982;SDS011;14442;50.196;8.096;2024-01-30T12:15:18;1.30;;;1.23;;
15982;SDS011;14442;50.196;8.096;2024-01-30T12:17:47;1.60;;;1.50;;
15982;SDS011;14442;50.196;8.096;2024-01-30T12:20:14;1.50;;;1.10;;
15982;SDS011;14442;50.196;8.096;2024-01-30T12:22:45;0.90;;;0.90;;
15982;SDS011;14442;50.196;8.096;2024-01-30T12:25:13;2.40;;;1.07;;
15982;SDS011;14442;50.196;8.096;2024-01-30T12:27:41;1.57;;;1.30;;
15982;SDS011;14442;50.196;8.096;2024-01-30T12:30:10;1.50;;;1.40;;
15982;SDS011;14442;50.196;8.096;2024-01-30T12:32:39;1.50;;;1.40;;
15982;SDS011;14442;50.196;8.096;2024-01-30T12:35:07;1.30;;;1.20;;
15982;SDS011;14442;50.196;8.096;2024-01-30T12:37:34;1.60;;;1.50;;
15982;SDS011;14442;50.196;8.096;2024-01-30T12:40:02;1.67;;;1.57;;
15982;SDS011;14442;50.196;8.096;2024-01-30T12:42:31;1.97;;;1.87;;
15982;SDS011;14442;50.196;8.096;2024-01-30T12:44:58;2.27;;;2.07;;
15982;SDS011;14442;50.196;8.096;2024-01-30T12:47:25;2.30;;;2.10;;
15982;SDS011;14442;50.196;8.096;2024-01-30T12:49:52;2.23;;;2.07;;
15982;SDS011;14442;50.196;8.096;2024-01-30T12:52:19;2.13;;;1.90;;
15982;SDS011;14442;50.196;8.096;2024-01-30T12:54:46;2.00;;;1.90;;
15982;SDS011;14442;50.196;8.096;2024-01-30T12:57:15;2.17;;;2.00;;
15982;SDS011;14442;50.196;8.096;2024-01-30T12:59:42;1.80;;;1.70;;
15982;SDS011;14442;50.196;8.096;2024-01-30T13:02:09;1.63;;;1.53;;
15982;SDS011;14442;50.196;8.096;2024-01-30T13:04:35;5.50;;;2.23;;
15982;SDS011;14442;50.196;8.096;2024-01-30T13:07:03;4.77;;;1.97;;
15982;SDS011;14442;50.196;8.096;2024-01-30T13:09:29;6.77;;;2.30;;
15982;SDS011;14442;50.196;8.096;2024-01-30T13:11:56;4.70;;;2.37;;
15982;SDS011;14442;50.196;8.096;2024-01-30T13:14:24;6.50;;;2.30;;
15982;SDS011;14442;50.196;8.096;2024-01-30T13:16:51;7.37;;;2.03;;
15982;SDS011;14442;50.196;8.096;2024-01-30T13:19:18;9.30;;;2.43;;
15982;SDS011;14442;50.196;8.096;2024-01-30T13:21:45;9.50;;;2.13;;
15982;SDS011;14442;50.196;8.096;2024-01-30T13:24:12;5.05;;;2.42;;
15982;SDS011;14442;50.196;8.096;2024-01-30T13:26:39;3.13;;;1.80;;
15982;SDS011;14442;50.196;8.096;2024-01-30T13:29:06;4.47;;;1.80;;
15982;SDS011;14442;50.196;8.096;2024-01-30T13:31:34;7.53;;;1.57;;
15982;SDS011;14442;50.196;8.096;2024-01-30T13:34:01;3.13;;;2.07;;
15982;SDS011;14442;50.196;8.096;2024-01-30T13:36:28;4.97;;;1.77;;
15982;SDS011;14442;50.196;8.096;2024-01-30T13:38:55;4.20;;;1.73;;
15982;SDS011;14442;50.196;8.096;2024-01-30T13:41:21;8.10;;;2.00;;
15982;SDS011;14442;50.196;8.096;2024-01-30T13:43:48;3.53;;;1.33;;
15982;SDS011;14442;50.196;8.096;2024-01-30T13:46:15;2.70;;;1.80;;
15982;SDS011;14442;50.196;8.096;2024-01-30T13:48:43;2.77;;;1.50;;
15982;SDS011;14442;50.196;8.096;2024-01-30T13:51:09;2.37;;;1.27;;
15982;SDS011;14442;50.196;8.096;2024-01-30T13:53:38;3.93;;;1.40;;
15982;SDS011;14442;50.196;8.096;2024-01-30T13:56:04;4.00;;;1.87;;
15982;SDS011;14442;50.196;8.096;2024-01-30T13:58:32;4.07;;;1.40;;
15982;SDS011;14442;50.196;8.096;2024-01-30T14:01:01;1.97;;;1.33;;
15982;SDS011;14442;50.196;8.096;2024-01-30T14:03:27;5.50;;;1.73;;
15982;SDS011;14442;50.196;8.096;2024-01-30T14:05:55;8.37;;;1.57;;
15982;SDS011;14442;50.196;8.096;2024-01-30T14:08:22;4.70;;;1.77;;
15982;SDS011;14442;50.196;8.096;2024-01-30T14:10:52;2.73;;;1.83;;
15982;SDS011;14442;50.196;8.096;2024-01-30T14:13:19;2.87;;;1.80;;
15982;SDS011;14442;50.196;8.096;2024-01-30T14:15:47;3.90;;;2.10;;
15982;SDS011;14442;50.196;8.096;2024-01-30T14:18:14;3.43;;;2.00;;
15982;SDS011;14442;50.196;8.096;2024-01-30T14:20:41;5.00;;;1.80;;
15982;SDS011;14442;50.196;8.096;2024-01-30T14:23:09;4.77;;;2.10;;
15982;SDS011;14442;50.196;8.096;2024-01-30T14:25:36;3.43;;;2.00;;
15982;SDS011;14442;50.196;8.096;2024-01-30T14:28:03;4.10;;;1.80;;
15982;SDS011;14442;50.196;8.096;2024-01-30T14:30:30;5.03;;;1.83;;
15982;SDS011;14442;50.196;8.096;2024-01-30T14:32:57;4.10;;;1.70;;
15982;SDS011;14442;50.196;8.096;2024-01-30T14:35:23;2.77;;;1.80;;
15982;SDS011;14442;50.196;8.096;2024-01-30T14:37:50;4.60;;;2.03;;
15982;SDS011;14442;50.196;8.096;2024-01-30T14:40:18;4.33;;;1.73;;
15982;SDS011;14442;50.196;8.096;2024-01-30T14:42:46;4.13;;;1.97;;
15982;SDS011;14442;50.196;8.096;2024-01-30T14:45:12;2.13;;;1.90;;
15982;SDS011;14442;50.196;8.096;2024-01-30T14:47:39;4.40;;;1.70;;
15982;SDS011;14442;50.196;8.096;2024-01-30T14:50:06;2.87;;;1.50;;
15982;SDS011;14442;50.196;8.096;2024-01-30T14:52:33;3.23;;;1.93;;
15982;SDS011;14442;50.196;8.096;2024-01-30T14:55:01;2.20;;;1.40;;